Terminal Aerodrome Forecast
Issued by NWS Cleveland, OH

Home | Current Version | Previous Version | Text Only | Print | Product List | Glossary Off
Versions: 1 2 3 4 5 6 7 8 9 10 11 12 13 14

831
FTUS41 KCLE 050524
TAFCAK
TAF
KCAK 050524Z 0506/0606 28010KT 6SM -SHSN OVC035
      TEMPO 0506/0510 5SM -SHSN BKN025
     FM051800 27008KT P6SM BKN035=

USA.gov is the U.S. government's official web portal to all federal, state and local government web resources and services.